sensor_id;sensor_type;location;lat;lon;timestamp;temperature;humidity
46085;DHT22;31823;47.032;8.310;2024-03-02T00:02:12;4.80;99.90
46085;DHT22;31823;47.032;8.310;2024-03-02T00:04:39;4.80;99.90
46085;DHT22;31823;47.032;8.310;2024-03-02T00:07:06;4.80;99.90
46085;DHT22;31823;47.032;8.310;2024-03-02T00:09:32;4.70;99.90
46085;DHT22;31823;47.032;8.310;2024-03-02T00:11:59;4.60;99.90
46085;DHT22;31823;47.032;8.310;2024-03-02T00:14:25;4.60;99.90
46085;DHT22;31823;47.032;8.310;2024-03-02T00:16:51;4.60;99.90
46085;DHT22;31823;47.032;8.310;2024-03-02T00:19:17;4.50;99.90
46085;DHT22;31823;47.032;8.310;2024-03-02T00:21:43;4.50;99.90
46085;DHT22;31823;47.032;8.310;2024-03-02T00:24:29;4.40;99.90
46085;DHT22;31823;47.032;8.310;2024-03-02T00:26:55;4.40;99.90
46085;DHT22;31823;47.032;8.310;2024-03-02T00:29:21;4.40;99.90
46085;DHT22;31823;47.032;8.310;2024-03-02T00:31:47;4.30;99.90
46085;DHT22;31823;47.032;8.310;2024-03-02T00:34:14;4.30;99.90
46085;DHT22;31823;47.032;8.310;2024-03-02T00:36:41;4.30;99.90
46085;DHT22;31823;47.032;8.310;2024-03-02T00:39:07;4.30;99.90
46085;DHT22;31823;47.032;8.310;2024-03-02T00:41:33;4.30;99.90
46085;DHT22;31823;47.032;8.310;2024-03-02T00:44:02;4.20;99.90
46085;DHT22;31823;47.032;8.310;2024-03-02T00:46:33;4.10;99.90
46085;DHT22;31823;47.032;8.310;2024-03-02T00:49:32;4.10;99.90
46085;DHT22;31823;47.032;8.310;2024-03-02T00:51:53;4.00;99.90
46085;DHT22;31823;47.032;8.310;2024-03-02T00:54:25;4.00;99.90
46085;DHT22;31823;47.032;8.310;2024-03-02T00:56:52;4.00;99.90
46085;DHT22;31823;47.032;8.310;2024-03-02T00:59:18;3.90;99.90
46085;DHT22;31823;47.032;8.310;2024-03-02T01:01:43;3.90;99.90
46085;DHT22;31823;47.032;8.310;2024-03-02T01:04:09;3.90;99.90
46085;DHT22;31823;47.032;8.310;2024-03-02T01:06:35;3.80;99.90
46085;DHT22;31823;47.032;8.310;2024-03-02T01:09:01;3.80;99.90
46085;DHT22;31823;47.032;8.310;2024-03-02T01:11:28;3.80;99.90
46085;DHT22;31823;47.032;8.310;2024-03-02T01:13:53;3.80;99.90
46085;DHT22;31823;47.032;8.310;2024-03-02T01:16:19;3.70;99.90
46085;DHT22;31823;47.032;8.310;2024-03-02T01:18:45;3.70;99.90
46085;DHT22;31823;47.032;8.310;2024-03-02T01:21:10;3.70;99.90
46085;DHT22;31823;47.032;8.310;2024-03-02T01:23:36;3.60;99.90
46085;DHT22;31823;47.032;8.310;2024-03-02T01:26:02;3.70;99.90
46085;DHT22;31823;47.032;8.310;2024-03-02T01:28:27;3.70;99.90
46085;DHT22;31823;47.032;8.310;2024-03-02T01:30:53;3.60;99.90
46085;DHT22;31823;47.032;8.310;2024-03-02T01:33:19;3.70;99.90
46085;DHT22;31823;47.032;8.310;2024-03-02T01:35:45;3.70;99.90
46085;DHT22;31823;47.032;8.310;2024-03-02T01:38:10;3.60;99.90
46085;DHT22;31823;47.032;8.310;2024-03-02T01:40:37;3.60;99.90
46085;DHT22;31823;47.032;8.310;2024-03-02T01:43:04;3.70;99.90
46085;DHT22;31823;47.032;8.310;2024-03-02T01:45:30;3.70;99.90
46085;DHT22;31823;47.032;8.310;2024-03-02T01:47:56;3.70;99.90
46085;DHT22;31823;47.032;8.310;2024-03-02T01:50:30;3.60;99.90
46085;DHT22;31823;47.032;8.310;2024-03-02T01:52:56;3.70;99.90
46085;DHT22;31823;47.032;8.310;2024-03-02T01:55:22;3.70;99.90
46085;DHT22;31823;47.032;8.310;2024-03-02T01:57:48;3.70;99.90
46085;DHT22;31823;47.032;8.310;2024-03-02T02:00:15;3.60;99.90
46085;DHT22;31823;47.032;8.310;2024-03-02T02:02:40;3.70;99.90
46085;DHT22;31823;47.032;8.310;2024-03-02T02:05:07;3.70;99.90
46085;DHT22;31823;47.032;8.310;2024-03-02T02:07:32;3.70;99.90
46085;DHT22;31823;47.032;8.310;2024-03-02T02:10:00;3.70;99.90
46085;DHT22;31823;47.032;8.310;2024-03-02T02:12:26;3.70;99.90
46085;DHT22;31823;47.032;8.310;2024-03-02T02:14:52;3.70;99.90
46085;DHT22;31823;47.032;8.310;2024-03-02T02:17:17;3.70;99.90
46085;DHT22;31823;47.032;8.310;2024-03-02T02:19:43;3.80;99.90
46085;DHT22;31823;47.032;8.310;2024-03-02T02:22:12;3.80;99.90
46085;DHT22;31823;47.032;8.310;2024-03-02T02:24:41;3.80;99.90
46085;DHT22;31823;47.032;8.310;2024-03-02T02:27:07;3.80;99.90
46085;DHT22;31823;47.032;8.310;2024-03-02T02:29:33;3.80;99.90
46085;DHT22;31823;47.032;8.310;2024-03-02T02:31:59;3.80;99.90
46085;DHT22;31823;47.032;8.310;2024-03-02T02:34:24;3.80;99.90
46085;DHT22;31823;47.032;8.310;2024-03-02T02:36:50;3.80;99.90
46085;DHT22;31823;47.032;8.310;2024-03-02T02:39:17;3.80;99.90
46085;DHT22;31823;47.032;8.310;2024-03-02T02:41:43;3.70;99.90
46085;DHT22;31823;47.032;8.310;2024-03-02T02:44:09;3.80;99.90
46085;DHT22;31823;47.032;8.310;2024-03-02T02:46:36;3.70;99.90
46085;DHT22;31823;47.032;8.310;2024-03-02T02:49:03;3.60;99.90
46085;DHT22;31823;47.032;8.310;2024-03-02T02:51:29;3.60;99.90
46085;DHT22;31823;47.032;8.310;2024-03-02T02:53:54;3.60;99.90
46085;DHT22;31823;47.032;8.310;2024-03-02T02:56:20;3.60;99.90
46085;DHT22;31823;47.032;8.310;2024-03-02T02:58:45;3.50;99.90
46085;DHT22;31823;47.032;8.310;2024-03-02T03:01:11;3.50;99.90
46085;DHT22;31823;47.032;8.310;2024-03-02T03:03:36;3.50;99.90
46085;DHT22;31823;47.032;8.310;2024-03-02T03:06:02;3.50;99.90
46085;DHT22;31823;47.032;8.310;2024-03-02T03:08:28;3.50;99.90
46085;DHT22;31823;47.032;8.310;2024-03-02T03:10:54;3.40;99.90
46085;DHT22;31823;47.032;8.310;2024-03-02T03:13:19;3.40;99.90
46085;DHT22;31823;47.032;8.310;2024-03-02T03:15:45;3.40;99.90
46085;DHT22;31823;47.032;8.310;2024-03-02T03:18:11;3.30;99.90
46085;DHT22;31823;47.032;8.310;2024-03-02T03:20:36;3.30;99.90
46085;DHT22;31823;47.032;8.310;2024-03-02T03:23:02;3.30;99.90
46085;DHT22;31823;47.032;8.310;2024-03-02T03:25:29;3.30;99.90
46085;DHT22;31823;47.032;8.310;2024-03-02T03:27:55;3.30;99.90
46085;DHT22;31823;47.032;8.310;2024-03-02T03:30:21;3.20;99.90
46085;DHT22;31823;47.032;8.310;2024-03-02T03:32:46;3.20;99.90
46085;DHT22;31823;47.032;8.310;2024-03-02T03:35:13;3.10;99.90
46085;DHT22;31823;47.032;8.310;2024-03-02T03:37:40;3.10;99.90
46085;DHT22;31823;47.032;8.310;2024-03-02T03:40:06;3.10;99.90
46085;DHT22;31823;47.032;8.310;2024-03-02T03:42:35;3.00;99.90
46085;DHT22;31823;47.032;8.310;2024-03-02T03:45:01;2.90;99.90
46085;DHT22;31823;47.032;8.310;2024-03-02T03:47:27;3.00;99.90
46085;DHT22;31823;47.032;8.310;2024-03-02T03:49:53;3.00;99.90
46085;DHT22;31823;47.032;8.310;2024-03-02T03:52:18;3.00;99.90
46085;DHT22;31823;47.032;8.310;2024-03-02T03:54:44;2.90;99.90
46085;DHT22;31823;47.032;8.310;2024-03-02T03:57:10;3.00;99.90
46085;DHT22;31823;47.032;8.310;2024-03-02T03:59:35;2.90;99.90
46085;DHT22;31823;47.032;8.310;2024-03-02T04:02:03;2.90;99.90
46085;DHT22;31823;47.032;8.310;2024-03-02T04:04:28;2.90;99.90
46085;DHT22;31823;47.032;8.310;2024-03-02T04:06:54;2.80;99.90
46085;DHT22;31823;47.032;8.310;2024-03-02T04:09:20;2.80;99.90
46085;DHT22;31823;47.032;8.310;2024-03-02T04:11:45;2.80;99.90
46085;DHT22;31823;47.032;8.310;2024-03-02T04:14:11;2.90;99.90
46085;DHT22;31823;47.032;8.310;2024-03-02T04:16:38;2.80;99.90
46085;DHT22;31823;47.032;8.310;2024-03-02T04:19:04;2.70;99.90
46085;DHT22;31823;47.032;8.310;2024-03-02T04:21:30;2.80;99.90
46085;DHT22;31823;47.032;8.310;2024-03-02T04:23:55;2.80;99.90
46085;DHT22;31823;47.032;8.310;2024-03-02T04:26:25;2.70;99.90
46085;DHT22;31823;47.032;8.310;2024-03-02T04:28:54;2.70;99.90
46085;DHT22;31823;47.032;8.310;2024-03-02T04:31:20;2.80;99.90
46085;DHT22;31823;47.032;8.310;2024-03-02T04:33:45;2.80;99.90
46085;DHT22;31823;47.032;8.310;2024-03-02T04:36:11;2.80;99.90
46085;DHT22;31823;47.032;8.310;2024-03-02T04:38:37;2.70;99.90
46085;DHT22;31823;47.032;8.310;2024-03-02T04:41:04;2.70;99.90
46085;DHT22;31823;47.032;8.310;2024-03-02T04:43:31;2.60;99.90
46085;DHT22;31823;47.032;8.310;2024-03-02T04:45:58;2.60;99.90
46085;DHT22;31823;47.032;8.310;2024-03-02T04:48:24;2.70;99.90
46085;DHT22;31823;47.032;8.310;2024-03-02T04:50:49;2.70;99.90
46085;DHT22;31823;47.032;8.310;2024-03-02T04:53:15;2.70;99.90
46085;DHT22;31823;47.032;8.310;2024-03-02T04:55:41;2.60;99.90
46085;DHT22;31823;47.032;8.310;2024-03-02T04:58:06;2.60;99.90
46085;DHT22;31823;47.032;8.310;2024-03-02T05:00:32;2.70;99.90
46085;DHT22;31823;47.032;8.310;2024-03-02T05:02:58;2.60;99.90
46085;DHT22;31823;47.032;8.310;2024-03-02T05:05:23;2.60;99.90
46085;DHT22;31823;47.032;8.310;2024-03-02T05:07:49;2.60;99.90
46085;DHT22;31823;47.032;8.310;2024-03-02T05:10:15;2.60;99.90
46085;DHT22;31823;47.032;8.310;2024-03-02T05:12:41;2.60;99.90
46085;DHT22;31823;47.032;8.310;2024-03-02T05:15:07;2.60;99.90
46085;DHT22;31823;47.032;8.310;2024-03-02T05:17:33;2.60;99.90
46085;DHT22;31823;47.032;8.310;2024-03-02T05:19:59;2.60;99.90
46085;DHT22;31823;47.032;8.310;2024-03-02T05:22:24;2.60;99.90
46085;DHT22;31823;47.032;8.310;2024-03-02T05:24:50;2.60;99.90
46085;DHT22;31823;47.032;8.310;2024-03-02T05:27:15;2.60;99.90
46085;DHT22;31823;47.032;8.310;2024-03-02T05:29:41;2.60;99.90
46085;DHT22;31823;47.032;8.310;2024-03-02T05:32:07;2.60;99.90
46085;DHT22;31823;47.032;8.310;2024-03-02T05:34:32;2.60;99.90
46085;DHT22;31823;47.032;8.310;2024-03-02T05:37:00;2.60;99.90
46085;DHT22;31823;47.032;8.310;2024-03-02T05:39:26;2.60;99.90
46085;DHT22;31823;47.032;8.310;2024-03-02T05:41:52;2.70;99.90
46085;DHT22;31823;47.032;8.310;2024-03-02T05:44:17;2.70;99.90
46085;DHT22;31823;47.032;8.310;2024-03-02T05:46:44;2.60;99.90
46085;DHT22;31823;47.032;8.310;2024-03-02T05:49:10;2.60;99.90
46085;DHT22;31823;47.032;8.310;2024-03-02T05:51:35;2.70;99.90
46085;DHT22;31823;47.032;8.310;2024-03-02T05:54:01;2.60;99.90
46085;DHT22;31823;47.032;8.310;2024-03-02T05:56:27;2.60;99.90
46085;DHT22;31823;47.032;8.310;2024-03-02T05:58:53;2.60;99.90
46085;DHT22;31823;47.032;8.310;2024-03-02T06:01:33;2.70;99.90
46085;DHT22;31823;47.032;8.310;2024-03-02T06:03:59;2.60;99.90
46085;DHT22;31823;47.032;8.310;2024-03-02T06:06:25;2.60;99.90
46085;DHT22;31823;47.032;8.310;2024-03-02T06:08:51;2.50;99.90
46085;DHT22;31823;47.032;8.310;2024-03-02T06:11:17;2.50;99.90
46085;DHT22;31823;47.032;8.310;2024-03-02T06:13:42;2.60;99.90
46085;DHT22;31823;47.032;8.310;2024-03-02T06:16:08;2.60;99.90
46085;DHT22;31823;47.032;8.310;2024-03-02T06:18:34;2.60;99.90
46085;DHT22;31823;47.032;8.310;2024-03-02T06:20:59;2.60;99.90
46085;DHT22;31823;47.032;8.310;2024-03-02T06:23:26;2.70;99.90
46085;DHT22;31823;47.032;8.310;2024-03-02T06:25:52;2.70;99.90
46085;DHT22;31823;47.032;8.310;2024-03-02T06:28:18;2.70;99.90
46085;DHT22;31823;47.032;8.310;2024-03-02T06:30:43;2.70;99.90
46085;DHT22;31823;47.032;8.310;2024-03-02T06:33:09;2.80;99.90
46085;DHT22;31823;47.032;8.310;2024-03-02T06:35:35;2.90;99.90
46085;DHT22;31823;47.032;8.310;2024-03-02T06:38:01;3.00;99.90
46085;DHT22;31823;47.032;8.310;2024-03-02T06:40:27;3.00;99.90
46085;DHT22;31823;47.032;8.310;2024-03-02T06:42:53;2.90;99.90
46085;DHT22;31823;47.032;8.310;2024-03-02T06:45:18;2.90;99.90
46085;DHT22;31823;47.032;8.310;2024-03-02T06:47:44;3.10;99.90
46085;DHT22;31823;47.032;8.310;2024-03-02T06:50:10;3.20;99.90
46085;DHT22;31823;47.032;8.310;2024-03-02T06:52:35;3.30;99.90
46085;DHT22;31823;47.032;8.310;2024-03-02T06:55:02;3.30;99.90
46085;DHT22;31823;47.032;8.310;2024-03-02T06:57:27;3.30;99.90
46085;DHT22;31823;47.032;8.310;2024-03-02T06:59:53;3.40;99.90
46085;DHT22;31823;47.032;8.310;2024-03-02T07:02:22;3.30;99.90
46085;DHT22;31823;47.032;8.310;2024-03-02T07:04:48;3.20;99.90
46085;DHT22;31823;47.032;8.310;2024-03-02T07:07:14;3.20;99.90
46085;DHT22;31823;47.032;8.310;2024-03-02T07:09:39;3.30;99.90
46085;DHT22;31823;47.032;8.310;2024-03-02T07:12:05;3.20;99.90
46085;DHT22;31823;47.032;8.310;2024-03-02T07:14:31;3.20;99.90
46085;DHT22;31823;47.032;8.310;2024-03-02T07:17:15;3.30;99.90
46085;DHT22;31823;47.032;8.310;2024-03-02T07:19:40;3.20;99.90
46085;DHT22;31823;47.032;8.310;2024-03-02T07:22:06;3.20;99.90
46085;DHT22;31823;47.032;8.310;2024-03-02T07:24:39;3.20;99.90
46085;DHT22;31823;47.032;8.310;2024-03-02T07:27:05;3.20;99.90
46085;DHT22;31823;47.032;8.310;2024-03-02T07:29:31;3.20;99.90
46085;DHT22;31823;47.032;8.310;2024-03-02T07:31:59;3.30;99.90
46085;DHT22;31823;47.032;8.310;2024-03-02T07:34:24;3.30;99.90
46085;DHT22;31823;47.032;8.310;2024-03-02T07:36:50;3.40;99.90
46085;DHT22;31823;47.032;8.310;2024-03-02T07:39:16;3.30;99.90
46085;DHT22;31823;47.032;8.310;2024-03-02T07:41:42;3.40;99.90
46085;DHT22;31823;47.032;8.310;2024-03-02T07:44:07;3.50;99.90
46085;DHT22;31823;47.032;8.310;2024-03-02T07:46:33;3.70;99.90
46085;DHT22;31823;47.032;8.310;2024-03-02T07:48:58;4.10;99.90
46085;DHT22;31823;47.032;8.310;2024-03-02T07:51:24;4.30;99.90
46085;DHT22;31823;47.032;8.310;2024-03-02T07:53:50;4.60;99.90
46085;DHT22;31823;47.032;8.310;2024-03-02T07:56:15;4.70;99.90
46085;DHT22;31823;47.032;8.310;2024-03-02T07:58:48;4.70;99.90
46085;DHT22;31823;47.032;8.310;2024-03-02T08:01:14;4.50;99.90
46085;DHT22;31823;47.032;8.310;2024-03-02T08:03:40;4.40;99.90
46085;DHT22;31823;47.032;8.310;2024-03-02T08:06:06;4.50;99.90
46085;DHT22;31823;47.032;8.310;2024-03-02T08:08:31;4.80;99.90
46085;DHT22;31823;47.032;8.310;2024-03-02T08:10:57;5.20;99.90
46085;DHT22;31823;47.032;8.310;2024-03-02T08:13:23;5.40;99.90
46085;DHT22;31823;47.032;8.310;2024-03-02T08:15:49;5.80;99.90
46085;DHT22;31823;47.032;8.310;2024-03-02T08:18:14;6.40;99.90
46085;DHT22;31823;47.032;8.310;2024-03-02T08:20:40;6.00;99.90
46085;DHT22;31823;47.032;8.310;2024-03-02T08:23:06;6.10;99.90
46085;DHT22;31823;47.032;8.310;2024-03-02T08:25:33;6.30;99.90
46085;DHT22;31823;47.032;8.310;2024-03-02T08:27:59;6.10;99.90
46085;DHT22;31823;47.032;8.310;2024-03-02T08:30:26;5.90;99.90
46085;DHT22;31823;47.032;8.310;2024-03-02T08:32:52;5.80;99.90
46085;DHT22;31823;47.032;8.310;2024-03-02T08:35:17;5.90;99.90
46085;DHT22;31823;47.032;8.310;2024-03-02T08:37:43;6.00;99.90
46085;DHT22;31823;47.032;8.310;2024-03-02T08:40:09;6.20;99.90
46085;DHT22;31823;47.032;8.310;2024-03-02T08:42:35;8.60;99.90
46085;DHT22;31823;47.032;8.310;2024-03-02T08:45:01;9.30;99.90
46085;DHT22;31823;47.032;8.310;2024-03-02T08:47:27;10.50;99.90
46085;DHT22;31823;47.032;8.310;2024-03-02T08:49:53;11.80;99.90
46085;DHT22;31823;47.032;8.310;2024-03-02T08:52:18;13.70;99.90
46085;DHT22;31823;47.032;8.310;2024-03-02T08:54:44;13.00;99.90
46085;DHT22;31823;47.032;8.310;2024-03-02T08:57:10;10.00;99.90
46085;DHT22;31823;47.032;8.310;2024-03-02T08:59:35;9.70;99.90
46085;DHT22;31823;47.032;8.310;2024-03-02T09:02:04;11.50;99.90
46085;DHT22;31823;47.032;8.310;2024-03-02T09:04:30;13.60;99.90
46085;DHT22;31823;47.032;8.310;2024-03-02T09:06:55;15.60;99.80
46085;DHT22;31823;47.032;8.310;2024-03-02T09:09:21;17.20;96.30
46085;DHT22;31823;47.032;8.310;2024-03-02T09:11:46;16.60;95.90
46085;DHT22;31823;47.032;8.310;2024-03-02T09:14:12;16.20;95.60
46085;DHT22;31823;47.032;8.310;2024-03-02T09:16:40;15.70;95.90
46085;DHT22;31823;47.032;8.310;2024-03-02T09:19:05;13.40;99.20
46085;DHT22;31823;47.032;8.310;2024-03-02T09:21:31;11.00;99.90
46085;DHT22;31823;47.032;8.310;2024-03-02T09:23:57;10.30;99.90
46085;DHT22;31823;47.032;8.310;2024-03-02T09:26:22;11.10;99.90
46085;DHT22;31823;47.032;8.310;2024-03-02T09:28:50;12.40;99.90
46085;DHT22;31823;47.032;8.310;2024-03-02T09:31:16;14.10;99.90
46085;DHT22;31823;47.032;8.310;2024-03-02T09:33:41;14.80;99.90
46085;DHT22;31823;47.032;8.310;2024-03-02T09:36:20;16.00;98.00
46085;DHT22;31823;47.032;8.310;2024-03-02T09:38:46;15.80;97.20
46085;DHT22;31823;47.032;8.310;2024-03-02T09:41:12;15.30;98.50
46085;DHT22;31823;47.032;8.310;2024-03-02T09:43:38;18.00;94.00
46085;DHT22;31823;47.032;8.310;2024-03-02T09:46:03;18.60;93.10
46085;DHT22;31823;47.032;8.310;2024-03-02T09:48:29;18.10;94.50
46085;DHT22;31823;47.032;8.310;2024-03-02T09:50:55;17.90;94.90
46085;DHT22;31823;47.032;8.310;2024-03-02T09:53:22;17.30;94.40
46085;DHT22;31823;47.032;8.310;2024-03-02T09:55:48;18.50;93.80
46085;DHT22;31823;47.032;8.310;2024-03-02T09:58:14;18.90;92.30
46085;DHT22;31823;47.032;8.310;2024-03-02T10:00:39;19.20;91.60
46085;DHT22;31823;47.032;8.310;2024-03-02T10:03:05;20.00;90.10
46085;DHT22;31823;47.032;8.310;2024-03-02T10:05:36;20.30;89.10
46085;DHT22;31823;47.032;8.310;2024-03-02T10:08:02;21.80;87.10
46085;DHT22;31823;47.032;8.310;2024-03-02T10:10:39;20.80;88.70
46085;DHT22;31823;47.032;8.310;2024-03-02T10:13:09;21.50;87.50
46085;DHT22;31823;47.032;8.310;2024-03-02T10:15:36;21.10;84.10
46085;DHT22;31823;47.032;8.310;2024-03-02T10:18:12;20.20;88.50
46085;DHT22;31823;47.032;8.310;2024-03-02T10:20:39;20.10;90.50
46085;DHT22;31823;47.032;8.310;2024-03-02T10:23:15;19.70;90.50
46085;DHT22;31823;47.032;8.310;2024-03-02T10:25:41;19.80;90.00
46085;DHT22;31823;47.032;8.310;2024-03-02T10:28:07;16.50;92.70
46085;DHT22;31823;47.032;8.310;2024-03-02T10:30:34;14.70;96.20
46085;DHT22;31823;47.032;8.310;2024-03-02T10:33:01;14.10;96.40
46085;DHT22;31823;47.032;8.310;2024-03-02T10:35:27;13.50;99.20
46085;DHT22;31823;47.032;8.310;2024-03-02T10:37:53;15.60;95.30
46085;DHT22;31823;47.032;8.310;2024-03-02T10:40:22;14.80;98.10
46085;DHT22;31823;47.032;8.310;2024-03-02T10:42:50;14.60;97.60
46085;DHT22;31823;47.032;8.310;2024-03-02T10:45:16;15.60;96.50
46085;DHT22;31823;47.032;8.310;2024-03-02T10:47:47;19.50;90.80
46085;DHT22;31823;47.032;8.310;2024-03-02T10:50:13;18.80;87.80
46085;DHT22;31823;47.032;8.310;2024-03-02T10:52:39;16.90;93.20
46085;DHT22;31823;47.032;8.310;2024-03-02T10:55:06;15.50;95.40
46085;DHT22;31823;47.032;8.310;2024-03-02T10:57:43;14.60;95.20
46085;DHT22;31823;47.032;8.310;2024-03-02T11:00:12;14.80;96.30
46085;DHT22;31823;47.032;8.310;2024-03-02T11:02:47;14.70;96.00
46085;DHT22;31823;47.032;8.310;2024-03-02T11:05:22;15.60;95.00
46085;DHT22;31823;47.032;8.310;2024-03-02T11:07:53;15.40;95.50
46085;DHT22;31823;47.032;8.310;2024-03-02T11:10:19;15.90;95.90
46085;DHT22;31823;47.032;8.310;2024-03-02T11:12:56;17.50;91.90
46085;DHT22;31823;47.032;8.310;2024-03-02T11:15:26;20.10;87.50
46085;DHT22;31823;47.032;8.310;2024-03-02T11:17:53;19.20;89.10
46085;DHT22;31823;47.032;8.310;2024-03-02T11:20:19;17.20;92.30
46085;DHT22;31823;47.032;8.310;2024-03-02T11:22:45;17.20;93.20
46085;DHT22;31823;47.032;8.310;2024-03-02T11:25:25;16.60;93.20
46085;DHT22;31823;47.032;8.310;2024-03-02T11:32:58;18.90;90.90
46085;DHT22;31823;47.032;8.310;2024-03-02T11:35:27;17.80;91.20
46085;DHT22;31823;47.032;8.310;2024-03-02T11:37:55;17.70;92.40
46085;DHT22;31823;47.032;8.310;2024-03-02T11:40:28;17.00;93.80
46085;DHT22;31823;47.032;8.310;2024-03-02T11:42:53;15.50;96.90
46085;DHT22;31823;47.032;8.310;2024-03-02T11:45:26;16.00;95.70
46085;DHT22;31823;47.032;8.310;2024-03-02T11:47:56;17.10;93.50
46085;DHT22;31823;47.032;8.310;2024-03-02T11:50:49;18.60;92.00
46085;DHT22;31823;47.032;8.310;2024-03-02T11:53:15;20.50;89.70
46085;DHT22;31823;47.032;8.310;2024-03-02T11:55:42;19.60;88.50
46085;DHT22;31823;47.032;8.310;2024-03-02T11:58:17;16.50;94.70
46085;DHT22;31823;47.032;8.310;2024-03-02T12:00:46;15.90;96.30
46085;DHT22;31823;47.032;8.310;2024-03-02T12:03:15;16.20;96.00
46085;DHT22;31823;47.032;8.310;2024-03-02T12:05:40;17.30;94.40
46085;DHT22;31823;47.032;8.310;2024-03-02T12:08:08;16.00;94.40
46085;DHT22;31823;47.032;8.310;2024-03-02T12:10:34;14.80;96.50
46085;DHT22;31823;47.032;8.310;2024-03-02T12:13:02;14.90;96.50
46085;DHT22;31823;47.032;8.310;2024-03-02T12:15:33;14.10;97.20
46085;DHT22;31823;47.032;8.310;2024-03-02T12:18:00;13.60;98.60
46085;DHT22;31823;47.032;8.310;2024-03-02T12:20:28;13.50;99.40
46085;DHT22;31823;47.032;8.310;2024-03-02T12:22:55;15.40;95.40
46085;DHT22;31823;47.032;8.310;2024-03-02T12:25:23;15.60;95.50
46085;DHT22;31823;47.032;8.310;2024-03-02T12:27:55;15.40;94.80
46085;DHT22;31823;47.032;8.310;2024-03-02T12:30:21;15.00;95.50
46085;DHT22;31823;47.032;8.310;2024-03-02T12:32:47;15.00;96.00
46085;DHT22;31823;47.032;8.310;2024-03-02T12:35:14;14.70;96.40
46085;DHT22;31823;47.032;8.310;2024-03-02T12:37:49;15.10;95.70
46085;DHT22;31823;47.032;8.310;2024-03-02T12:40:19;17.30;93.80
46085;DHT22;31823;47.032;8.310;2024-03-02T12:42:45;16.70;93.70
46085;DHT22;31823;47.032;8.310;2024-03-02T12:45:12;15.00;95.80
46085;DHT22;31823;47.032;8.310;2024-03-02T12:47:39;15.30;95.90
46085;DHT22;31823;47.032;8.310;2024-03-02T12:50:06;15.90;94.60
46085;DHT22;31823;47.032;8.310;2024-03-02T12:52:32;15.90;94.40
46085;DHT22;31823;47.032;8.310;2024-03-02T12:54:59;16.30;94.50
46085;DHT22;31823;47.032;8.310;2024-03-02T12:57:26;16.20;94.70
46085;DHT22;31823;47.032;8.310;2024-03-02T12:59:56;16.70;94.60
46085;DHT22;31823;47.032;8.310;2024-03-02T13:02:22;16.20;94.30
46085;DHT22;31823;47.032;8.310;2024-03-02T13:04:54;17.20;93.40
46085;DHT22;31823;47.032;8.310;2024-03-02T13:07:21;17.10;93.10
46085;DHT22;31823;47.032;8.310;2024-03-02T13:09:50;17.40;94.10
46085;DHT22;31823;47.032;8.310;2024-03-02T13:12:17;18.60;92.20
46085;DHT22;31823;47.032;8.310;2024-03-02T13:14:42;17.50;92.70
46085;DHT22;31823;47.032;8.310;2024-03-02T13:17:09;18.80;91.10
46085;DHT22;31823;47.032;8.310;2024-03-02T13:19:35;17.00;93.70
46085;DHT22;31823;47.032;8.310;2024-03-02T13:22:01;16.10;95.60
46085;DHT22;31823;47.032;8.310;2024-03-02T13:24:30;15.10;96.90
46085;DHT22;31823;47.032;8.310;2024-03-02T13:26:55;14.80;97.70
46085;DHT22;31823;47.032;8.310;2024-03-02T13:29:23;14.50;97.50
46085;DHT22;31823;47.032;8.310;2024-03-02T13:31:49;13.80;99.50
46085;DHT22;31823;47.032;8.310;2024-03-02T13:34:15;13.40;99.30
46085;DHT22;31823;47.032;8.310;2024-03-02T13:36:41;13.10;99.90
46085;DHT22;31823;47.032;8.310;2024-03-02T13:39:06;12.50;99.90
46085;DHT22;31823;47.032;8.310;2024-03-02T13:41:34;12.30;99.90
46085;DHT22;31823;47.032;8.310;2024-03-02T13:44:00;12.40;99.90
46085;DHT22;31823;47.032;8.310;2024-03-02T13:46:27;12.40;99.90
46085;DHT22;31823;47.032;8.310;2024-03-02T13:48:53;12.30;99.90
46085;DHT22;31823;47.032;8.310;2024-03-02T13:51:19;12.10;99.90
46085;DHT22;31823;47.032;8.310;2024-03-02T13:53:45;12.20;99.90
46085;DHT22;31823;47.032;8.310;2024-03-02T13:56:10;12.00;99.90
46085;DHT22;31823;47.032;8.310;2024-03-02T13:58:37;12.00;99.90
46085;DHT22;31823;47.032;8.310;2024-03-02T14:01:03;11.90;99.90
46085;DHT22;31823;47.032;8.310;2024-03-02T14:03:30;11.80;99.90
46085;DHT22;31823;47.032;8.310;2024-03-02T14:05:55;11.80;99.90
46085;DHT22;31823;47.032;8.310;2024-03-02T14:08:21;11.70;99.90
46085;DHT22;31823;47.032;8.310;2024-03-02T14:10:47;11.60;99.90
46085;DHT22;31823;47.032;8.310;2024-03-02T14:13:12;11.50;99.90
46085;DHT22;31823;47.032;8.310;2024-03-02T14:15:38;11.50;99.90
46085;DHT22;31823;47.032;8.310;2024-03-02T14:18:05;11.30;99.90
46085;DHT22;31823;47.032;8.310;2024-03-02T14:20:31;11.30;99.90
46085;DHT22;31823;47.032;8.310;2024-03-02T14:22:58;11.30;99.90
46085;DHT22;31823;47.032;8.310;2024-03-02T14:25:25;11.40;99.90
46085;DHT22;31823;47.032;8.310;2024-03-02T14:27:50;11.10;99.90
46085;DHT22;31823;47.032;8.310;2024-03-02T14:30:16;11.00;99.90
46085;DHT22;31823;47.032;8.310;2024-03-02T14:32:42;10.90;99.90
46085;DHT22;31823;47.032;8.310;2024-03-02T14:35:08;11.10;99.90
46085;DHT22;31823;47.032;8.310;2024-03-02T14:37:36;11.70;99.90
46085;DHT22;31823;47.032;8.310;2024-03-02T14:40:02;11.40;99.90
46085;DHT22;31823;47.032;8.310;2024-03-02T14:42:30;11.10;99.90
46085;DHT22;31823;47.032;8.310;2024-03-02T14:44:57;11.30;99.90
46085;DHT22;31823;47.032;8.310;2024-03-02T14:47:22;11.90;99.90
46085;DHT22;31823;47.032;8.310;2024-03-02T14:49:48;12.50;99.90
46085;DHT22;31823;47.032;8.310;2024-03-02T14:52:14;13.00;99.90
46085;DHT22;31823;47.032;8.310;2024-03-02T14:54:39;12.90;99.90
46085;DHT22;31823;47.032;8.310;2024-03-02T14:57:05;12.80;99.90
46085;DHT22;31823;47.032;8.310;2024-03-02T14:59:31;12.60;99.90
46085;DHT22;31823;47.032;8.310;2024-03-02T15:01:57;12.70;99.90
46085;DHT22;31823;47.032;8.310;2024-03-02T15:04:23;12.70;99.90
46085;DHT22;31823;47.032;8.310;2024-03-02T15:06:49;12.60;99.90
46085;DHT22;31823;47.032;8.310;2024-03-02T15:09:15;12.40;99.90
46085;DHT22;31823;47.032;8.310;2024-03-02T15:11:44;12.20;99.90
46085;DHT22;31823;47.032;8.310;2024-03-02T15:14:09;12.10;99.90
46085;DHT22;31823;47.032;8.310;2024-03-02T15:16:35;12.10;99.90
46085;DHT22;31823;47.032;8.310;2024-03-02T15:19:00;12.10;99.90
46085;DHT22;31823;47.032;8.310;2024-03-02T15:21:26;11.70;99.90
46085;DHT22;31823;47.032;8.310;2024-03-02T15:23:52;11.70;99.90
46085;DHT22;31823;47.032;8.310;2024-03-02T15:26:17;11.60;99.90
46085;DHT22;31823;47.032;8.310;2024-03-02T15:28:43;11.70;99.90
46085;DHT22;31823;47.032;8.310;2024-03-02T15:31:08;11.80;99.90
46085;DHT22;31823;47.032;8.310;2024-03-02T15:33:34;11.70;99.90
46085;DHT22;31823;47.032;8.310;2024-03-02T15:36:00;11.70;99.90
46085;DHT22;31823;47.032;8.310;2024-03-02T15:38:26;11.80;99.90
46085;DHT22;31823;47.032;8.310;2024-03-02T15:40:52;11.80;99.90
46085;DHT22;31823;47.032;8.310;2024-03-02T15:43:17;12.10;99.90